Clayton, Iowa
Current Conditions -  °F | °C
As of 2:35 AM on Sunday 23 Nov 2014 (Local Time) from KPDC Reporting Station
Overcast Overcast  
Wind Chill: 51°   Ceiling: 1100
Heat Index: 51°   Visibility: 7mi
Dew Point: 48°   Wind: 9mph
Humidity: 88%   Direction: 160°SSE
Pressure: 29.64"   Gusts: NA
Location:  42.8882°N, 91.208°W
Report Text: KPDC 230835Z AUTO 16008KT 120V200 7SM OVC011 11/09 A2964 RMK AO2 T01070088
Loading
Personal Weather Stations






























Interactive Weather Map New forecast layout! Learn more

10-Day Weather Forecast

Advertisements
Track Severe Weather on mobile